createdAt,value
2019-03-21T00:01:57.113Z,73.50
2019-03-21T00:04:25.891Z,73.80
2019-03-21T00:06:55.014Z,73.70
2019-03-21T00:09:23.643Z,73.50
2019-03-21T00:11:58.010Z,73.30
2019-03-21T00:14:29.673Z,73.70
2019-03-21T00:16:58.456Z,73.50
2019-03-21T00:19:27.134Z,73.50
2019-03-21T00:21:55.888Z,73.50
2019-03-21T00:24:24.796Z,73.50
2019-03-21T00:26:53.632Z,73.50
2019-03-21T00:29:22.260Z,73.70
2019-03-21T00:31:52.266Z,74.00
2019-03-21T00:34:20.909Z,73.70
2019-03-21T00:36:49.702Z,73.40
2019-03-21T00:39:18.562Z,73.20
2019-03-21T00:41:47.431Z,73.20
2019-03-21T00:44:18.499Z,73.00
2019-03-21T00:46:46.383Z,73.00
2019-03-21T00:49:15.013Z,72.50
2019-03-21T00:51:43.626Z,72.40
2019-03-21T00:54:12.230Z,72.30
2019-03-21T00:56:40.959Z,72.20
2019-03-21T00:59:09.672Z,71.70
2019-03-21T01:01:38.343Z,71.60
2019-03-21T01:04:07.030Z,71.30
2019-03-21T01:06:37.144Z,71.10
2019-03-21T01:09:09.000Z,71.60
2019-03-21T01:11:37.613Z,71.10
2019-03-21T01:14:06.320Z,71.20
2019-03-21T01:16:34.969Z,71.30
2019-03-21T01:19:03.714Z,71.70
2019-03-21T01:21:32.371Z,71.90
2019-03-21T01:24:01.036Z,71.80
2019-03-21T01:26:29.695Z,72.00
2019-03-21T01:28:58.348Z,72.20
2019-03-21T01:31:27.266Z,72.20
2019-03-21T01:33:56.161Z,72.30
2019-03-21T01:36:25.183Z,72.30
2019-03-21T01:38:54.084Z,72.50
2019-03-21T01:41:22.776Z,72.80
2019-03-21T01:43:51.502Z,73.30
2019-03-21T01:46:22.336Z,73.80
2019-03-21T01:48:51.099Z,74.10
2019-03-21T01:51:19.786Z,74.10
2019-03-21T01:53:48.498Z,74.40
2019-03-21T01:56:17.149Z,74.50
2019-03-21T01:58:45.824Z,74.60
2019-03-21T02:01:14.671Z,74.80
2019-03-21T02:03:43.360Z,75.20
2019-03-21T02:06:12.063Z,75.20
2019-03-21T02:08:40.672Z,75.30
2019-03-21T02:11:09.404Z,75.80
2019-03-21T02:13:38.255Z,76.10
2019-03-21T02:16:06.914Z,76.50
2019-03-21T02:18:35.548Z,76.60
2019-03-21T02:21:04.392Z,76.80
2019-03-21T02:23:33.168Z,76.90
2019-03-21T02:26:01.847Z,77.30
2019-03-21T02:28:30.444Z,77.70
2019-03-21T02:30:59.082Z,77.90
2019-03-21T02:33:30.750Z,78.40
2019-03-21T02:35:59.592Z,78.30
2019-03-21T02:38:29.764Z,78.40
2019-03-21T02:41:04.665Z,78.80
2019-03-21T02:43:33.540Z,78.80
2019-03-21T02:46:02.131Z,78.90
2019-03-21T02:48:30.791Z,79.20
2019-03-21T02:50:59.480Z,79.10
2019-03-21T02:53:28.054Z,79.20
2019-03-21T02:55:56.674Z,79.60
2019-03-21T02:58:25.371Z,79.60
2019-03-21T03:00:53.978Z,79.80
2019-03-21T03:03:22.701Z,79.90
2019-03-21T03:05:51.273Z,79.80
2019-03-21T03:08:19.880Z,79.90
2019-03-21T03:10:57.213Z,80.20
2019-03-21T03:13:26.011Z,80.50
2019-03-21T03:15:54.665Z,80.30
2019-03-21T03:18:24.789Z,80.40
2019-03-21T03:20:53.401Z,80.70
2019-03-21T03:23:22.362Z,81.10
2019-03-21T03:25:51.582Z,81.60
2019-03-21T03:28:32.519Z,81.20
2019-03-21T03:31:01.134Z,81.40
2019-03-21T03:33:29.709Z,81.50
2019-03-21T03:35:58.295Z,81.70
2019-03-21T03:38:26.961Z,82.10
2019-03-21T03:41:07.517Z,82.00
2019-03-21T03:43:36.227Z,82.10
2019-03-21T03:46:04.996Z,82.40
2019-03-21T03:48:33.693Z,82.40
2019-03-21T03:51:02.389Z,83.00
2019-03-21T03:53:31.073Z,83.10
2019-03-21T03:55:59.734Z,83.10
2019-03-21T03:58:36.530Z,82.80
2019-03-21T04:01:05.555Z,83.00
2019-03-21T04:03:34.403Z,83.00
2019-03-21T04:06:03.152Z,83.20
2019-03-21T04:08:32.000Z,83.20
2019-03-21T04:11:00.732Z,83.70
2019-03-21T04:13:32.945Z,83.70
2019-03-21T04:16:01.600Z,83.60
2019-03-21T04:18:30.188Z,84.20
2019-03-21T04:21:07.432Z,83.90
2019-03-21T04:23:36.166Z,84.40
2019-03-21T04:26:07.877Z,84.50
2019-03-21T04:28:36.531Z,84.60
2019-03-21T04:31:05.224Z,84.70
2019-03-21T04:33:33.829Z,85.00
2019-03-21T04:36:02.405Z,85.20
2019-03-21T04:38:31.130Z,85.50
2019-03-21T04:40:59.815Z,86.00
2019-03-21T04:43:28.443Z,86.10
2019-03-21T04:46:03.299Z,86.10
2019-03-21T04:48:27.524Z,86.20
2019-03-21T04:50:56.180Z,86.50
2019-03-21T04:53:24.865Z,87.40
2019-03-21T04:55:53.833Z,86.60
2019-03-21T04:58:22.444Z,86.90
2019-03-21T05:00:53.776Z,87.10
2019-03-21T05:03:24.937Z,87.10
2019-03-21T05:05:53.613Z,87.20
2019-03-21T05:08:22.229Z,87.30
2019-03-21T05:10:51.135Z,87.30
2019-03-21T05:13:19.724Z,87.50
2019-03-21T05:15:52.620Z,87.70
2019-03-21T05:18:30.586Z,87.80
2019-03-21T05:21:00.768Z,87.90
2019-03-21T05:23:29.344Z,88.20
2019-03-21T05:25:57.975Z,88.60
2019-03-21T05:28:26.694Z,88.40
2019-03-21T05:31:01.353Z,88.70
2019-03-21T05:33:30.058Z,88.70
2019-03-21T05:35:58.641Z,88.70
2019-03-21T05:38:30.323Z,89.10
2019-03-21T05:40:59.258Z,88.90
2019-03-21T05:43:43.128Z,89.00
2019-03-21T05:46:11.791Z,89.10
2019-03-21T05:48:40.384Z,89.10
2019-03-21T05:51:09.053Z,89.30
2019-03-21T05:53:37.674Z,89.30
2019-03-21T05:56:06.831Z,89.40
2019-03-21T05:58:36.327Z,89.40
2019-03-21T06:01:10.751Z,90.00
2019-03-21T06:03:54.758Z,90.10
2019-03-21T06:06:38.377Z,90.30
2019-03-21T06:09:10.827Z,90.30
2019-03-21T06:11:41.433Z,90.30
2019-03-21T06:14:10.102Z,90.00
2019-03-21T06:16:38.760Z,89.90
2019-03-21T06:19:16.341Z,89.70
2019-03-21T06:22:05.932Z,89.70
2019-03-21T06:24:40.623Z,89.60
2019-03-21T06:27:28.638Z,89.50
2019-03-21T06:29:57.427Z,89.80
2019-03-21T06:32:29.636Z,90.20
2019-03-21T06:35:07.055Z,90.20
2019-03-21T06:37:37.016Z,90.40
2019-03-21T06:40:07.579Z,90.30
2019-03-21T06:42:38.877Z,90.30
2019-03-21T06:45:07.328Z,90.20
2019-03-21T06:47:35.913Z,90.40
2019-03-21T06:50:10.178Z,90.10
2019-03-21T06:52:49.359Z,90.10
2019-03-21T06:55:19.655Z,89.90
2019-03-21T06:57:48.643Z,89.70
2019-03-21T07:00:17.435Z,89.90
2019-03-21T07:02:46.113Z,89.90
2019-03-21T07:05:14.909Z,90.00
2019-03-21T07:07:43.513Z,90.00
2019-03-21T07:10:12.568Z,90.00
2019-03-21T07:12:41.224Z,90.20
2019-03-21T07:15:11.416Z,90.00
2019-03-21T07:17:40.001Z,89.70
2019-03-21T07:20:11.443Z,89.30
2019-03-21T07:22:40.052Z,89.40
2019-03-21T07:25:11.663Z,89.50
2019-03-21T07:27:40.417Z,89.60
2019-03-21T07:30:11.899Z,89.60
2019-03-21T07:32:43.524Z,89.60
2019-03-21T07:35:13.156Z,89.40
2019-03-21T07:37:42.771Z,89.40
2019-03-21T07:40:13.224Z,89.50
2019-03-21T07:42:42.106Z,89.50
2019-03-21T07:45:12.456Z,89.60
2019-03-21T07:47:41.122Z,88.80
2019-03-21T07:50:12.321Z,88.70
2019-03-21T07:52:40.969Z,87.70
2019-03-21T07:55:11.310Z,87.30
2019-03-21T07:57:41.101Z,86.20
2019-03-21T08:00:15.202Z,85.90
2019-03-21T08:02:44.246Z,85.00
2019-03-21T08:05:13.212Z,84.30
2019-03-21T08:07:41.872Z,83.10
2019-03-21T08:10:12.828Z,83.20
2019-03-21T08:12:41.565Z,83.10
2019-03-21T08:15:15.840Z,83.40
2019-03-21T08:17:44.504Z,82.60
2019-03-21T08:20:14.824Z,80.80
2019-03-21T08:22:43.492Z,79.80
2019-03-21T08:25:12.637Z,79.60
2019-03-21T08:27:41.392Z,80.70
2019-03-21T08:30:24.996Z,80.70
2019-03-21T08:32:53.563Z,81.00
2019-03-21T08:35:22.136Z,81.80
2019-03-21T08:37:50.940Z,83.00
2019-03-21T08:40:19.598Z,83.50
2019-03-21T08:42:48.321Z,83.90
2019-03-21T08:45:17.019Z,83.60
2019-03-21T08:47:45.672Z,83.50
2019-03-21T08:50:14.488Z,83.40
2019-03-21T08:52:43.133Z,83.20
2019-03-21T08:55:11.953Z,82.30
2019-03-21T08:57:40.517Z,81.40
2019-03-21T09:00:12.473Z,80.80
2019-03-21T09:02:41.350Z,81.20
2019-03-21T09:05:10.208Z,81.10
2019-03-21T09:07:38.794Z,79.50
2019-03-21T09:10:09.530Z,78.30
2019-03-21T09:12:38.302Z,77.80
2019-03-21T09:15:08.243Z,80.20
2019-03-21T09:17:37.388Z,80.90
2019-03-21T09:20:07.696Z,80.50
2019-03-21T09:22:36.395Z,81.00
2019-03-21T09:25:07.062Z,80.70
2019-03-21T09:27:35.802Z,80.10
2019-03-21T09:30:13.454Z,80.00
2019-03-21T09:32:42.184Z,79.10
2019-03-21T09:35:12.442Z,77.60
2019-03-21T09:37:41.345Z,75.20
2019-03-21T09:40:14.263Z,73.90
2019-03-21T09:42:42.836Z,74.80
2019-03-21T09:45:11.691Z,75.00
2019-03-21T09:47:40.447Z,75.30
2019-03-21T09:50:09.741Z,73.20
2019-03-21T09:52:38.384Z,74.50
2019-03-21T09:55:07.636Z,75.80
2019-03-21T09:57:36.298Z,76.10
2019-03-21T10:00:10.087Z,75.60
2019-03-21T10:02:38.887Z,75.70
2019-03-21T10:05:08.057Z,77.30
2019-03-21T10:07:36.717Z,78.20
2019-03-21T10:10:08.173Z,77.60
2019-03-21T10:12:37.004Z,78.40
2019-03-21T10:15:06.690Z,79.10
2019-03-21T10:17:35.466Z,78.80
2019-03-21T10:20:06.892Z,76.60
2019-03-21T10:22:35.505Z,70.30
2019-03-21T10:25:05.394Z,66.00
2019-03-21T10:27:34.107Z,64.40
2019-03-21T10:30:04.453Z,67.30
2019-03-21T10:32:39.120Z,70.20
2019-03-21T10:35:09.451Z,73.20
2019-03-21T10:37:38.138Z,76.30
2019-03-21T10:40:07.334Z,78.00
2019-03-21T10:42:36.001Z,78.70
2019-03-21T10:45:06.510Z,79.00
2019-03-21T10:47:35.308Z,78.40
2019-03-21T10:50:06.194Z,78.20
2019-03-21T10:52:34.853Z,77.50
2019-03-21T10:55:04.642Z,77.40
2019-03-21T10:57:33.360Z,77.20
2019-03-21T11:00:02.437Z,76.80
2019-03-21T11:02:31.147Z,73.70
2019-03-21T11:04:59.797Z,70.40
2019-03-21T11:07:29.059Z,65.50
2019-03-21T11:09:57.726Z,63.00
2019-03-21T11:12:26.473Z,61.40
2019-03-21T11:14:58.051Z,60.00
2019-03-21T11:17:30.317Z,62.00
2019-03-21T11:20:07.609Z,64.30
2019-03-21T11:22:31.721Z,67.60
2019-03-21T11:25:00.345Z,69.30
2019-03-21T11:27:28.970Z,69.30
2019-03-21T11:29:57.536Z,70.40
2019-03-21T11:32:26.224Z,71.10
2019-03-21T11:34:56.367Z,71.20
2019-03-21T11:37:25.220Z,71.40
2019-03-21T11:39:54.102Z,68.70
2019-03-21T11:42:22.802Z,62.20
2019-03-21T11:44:51.452Z,58.20
2019-03-21T11:47:20.278Z,55.20
2019-03-21T11:49:48.985Z,55.20
2019-03-21T11:52:18.656Z,53.80
2019-03-21T11:54:47.911Z,55.70
2019-03-21T11:57:16.599Z,60.00
2019-03-21T11:59:51.520Z,63.40
2019-03-21T12:02:26.271Z,65.00
2019-03-21T12:04:45.972Z,63.30
2019-03-21T12:07:14.584Z,63.00
2019-03-21T12:09:43.504Z,60.60
2019-03-21T12:12:16.672Z,59.40
2019-03-21T12:14:45.312Z,59.50
2019-03-21T12:17:13.983Z,58.40
2019-03-21T12:19:42.750Z,54.70
2019-03-21T12:22:11.679Z,54.40
2019-03-21T12:24:40.397Z,55.00
2019-03-21T12:27:09.267Z,54.60
2019-03-21T12:29:37.895Z,57.40
2019-03-21T12:32:06.537Z,59.90
2019-03-21T12:34:35.243Z,60.20
2019-03-21T12:37:04.112Z,60.60
2019-03-21T12:39:32.772Z,60.40
2019-03-21T12:42:01.736Z,61.30
2019-03-21T12:44:30.439Z,63.00
2019-03-21T12:46:59.077Z,65.00
2019-03-21T12:49:28.002Z,65.00
2019-03-21T12:51:57.390Z,65.10
2019-03-21T12:54:25.980Z,64.90
2019-03-21T12:56:54.736Z,66.10
2019-03-21T12:59:23.320Z,66.20
2019-03-21T13:01:52.019Z,65.60
2019-03-21T13:04:20.585Z,64.10
2019-03-21T13:06:49.212Z,62.70
2019-03-21T13:09:17.925Z,60.90
2019-03-21T13:11:46.619Z,59.80
2019-03-21T13:14:15.168Z,58.60
2019-03-21T13:16:43.756Z,57.80
2019-03-21T13:19:12.409Z,56.80
2019-03-21T13:21:41.021Z,57.80
2019-03-21T13:24:09.719Z,58.10
2019-03-21T13:26:38.384Z,57.10
2019-03-21T13:29:08.675Z,56.20
2019-03-21T13:31:43.157Z,55.20
2019-03-21T13:34:11.836Z,55.60
2019-03-21T13:36:40.881Z,57.80
2019-03-21T13:39:09.473Z,59.50
2019-03-21T13:41:38.081Z,60.00
2019-03-21T13:44:06.691Z,59.80
2019-03-21T13:46:35.392Z,60.70
2019-03-21T13:49:06.028Z,61.70
2019-03-21T13:51:34.362Z,63.50
2019-03-21T13:54:03.080Z,64.40
2019-03-21T13:56:37.967Z,65.60
2019-03-21T13:59:02.009Z,65.90
2019-03-21T14:01:30.626Z,63.80
2019-03-21T14:04:01.691Z,64.10
2019-03-21T14:06:29.513Z,64.70
2019-03-21T14:08:58.132Z,65.90
2019-03-21T14:11:26.725Z,66.50
2019-03-21T14:13:55.588Z,67.70
2019-03-21T14:16:24.315Z,65.70
2019-03-21T14:18:53.011Z,63.30
2019-03-21T14:21:23.264Z,60.20
2019-03-21T14:23:51.979Z,58.80
2019-03-21T14:26:20.665Z,57.00
2019-03-21T14:28:51.150Z,54.80
2019-03-21T14:31:19.947Z,53.30
2019-03-21T14:33:48.896Z,54.50
2019-03-21T14:36:20.298Z,53.70
2019-03-21T14:38:49.023Z,53.80
2019-03-21T14:41:17.987Z,55.00
2019-03-21T14:43:58.196Z,56.20
2019-03-21T14:46:28.489Z,58.10
2019-03-21T14:48:57.121Z,60.20
2019-03-21T14:51:25.997Z,61.50
2019-03-21T14:53:54.710Z,60.70
2019-03-21T14:56:23.343Z,63.30
2019-03-21T14:58:51.923Z,63.50
2019-03-21T15:01:20.544Z,64.20
2019-03-21T15:03:50.901Z,64.90
2019-03-21T15:06:19.717Z,65.40
2019-03-21T15:08:48.404Z,65.70
2019-03-21T15:11:19.469Z,66.70
2019-03-21T15:13:48.159Z,66.00
2019-03-21T15:16:17.768Z,65.80
2019-03-21T15:18:46.795Z,65.90
2019-03-21T15:21:15.376Z,66.90
2019-03-21T15:23:43.992Z,66.90
2019-03-21T15:26:19.816Z,67.10
2019-03-21T15:28:48.772Z,67.90
2019-03-21T15:31:20.496Z,68.60
2019-03-21T15:33:51.108Z,69.10
2019-03-21T15:36:19.794Z,68.80
2019-03-21T15:38:49.969Z,68.60
2019-03-21T15:41:18.795Z,68.60
2019-03-21T15:43:47.486Z,68.60
2019-03-21T15:46:16.335Z,68.70
2019-03-21T15:48:44.919Z,69.00
2019-03-21T15:51:13.676Z,68.90
2019-03-21T15:53:53.269Z,69.50
2019-03-21T15:56:12.794Z,69.80
2019-03-21T15:58:41.477Z,69.80
2019-03-21T16:01:10.126Z,70.50
2019-03-21T16:03:38.978Z,70.80
2019-03-21T16:06:07.540Z,71.50
2019-03-21T16:08:36.222Z,72.50
2019-03-21T16:11:04.898Z,73.20
2019-03-21T16:13:33.516Z,74.10
2019-03-21T16:16:05.814Z,74.50
2019-03-21T16:18:34.476Z,75.00
2019-03-21T16:21:05.817Z,75.20
2019-03-21T16:23:33.323Z,76.10
2019-03-21T16:26:01.981Z,76.60
2019-03-21T16:28:30.596Z,77.30
2019-03-21T16:30:59.308Z,77.60
2019-03-21T16:33:27.944Z,77.90
2019-03-21T16:35:56.565Z,78.60
2019-03-21T16:38:25.525Z,79.00
2019-03-21T16:40:54.188Z,79.30
2019-03-21T16:43:22.791Z,80.10
2019-03-21T16:45:51.733Z,80.50
2019-03-21T16:48:20.314Z,81.10
2019-03-21T16:50:50.819Z,81.50
2019-03-21T16:53:19.706Z,81.90
2019-03-21T16:55:48.387Z,83.00
2019-03-21T16:58:17.001Z,82.80
2019-03-21T17:00:45.762Z,83.40
2019-03-21T17:03:16.069Z,83.60
2019-03-21T17:05:44.754Z,83.90
2019-03-21T17:08:13.752Z,84.40
2019-03-21T17:10:43.540Z,84.80
2019-03-21T17:13:12.285Z,85.00
2019-03-21T17:15:42.528Z,85.10
2019-03-21T17:18:11.261Z,85.20
2019-03-21T17:20:39.864Z,85.30
2019-03-21T17:23:08.640Z,85.40
2019-03-21T17:25:37.358Z,85.50
2019-03-21T17:28:06.080Z,85.40
2019-03-21T17:30:34.830Z,85.40
2019-03-21T17:33:03.611Z,85.30
2019-03-21T17:35:32.368Z,85.50
2019-03-21T17:38:01.057Z,85.50
2019-03-21T17:40:29.806Z,85.60
2019-03-21T17:42:58.459Z,85.60
2019-03-21T17:45:27.148Z,85.60
2019-03-21T17:47:55.952Z,85.40
2019-03-21T17:50:24.714Z,85.60
2019-03-21T17:52:53.339Z,85.50
2019-03-21T17:55:21.972Z,85.60
2019-03-21T17:57:50.967Z,85.70
2019-03-21T18:00:25.421Z,85.90
2019-03-21T18:02:54.152Z,85.70
2019-03-21T18:05:22.934Z,85.90
2019-03-21T18:07:51.627Z,85.90
2019-03-21T18:10:31.941Z,86.10
2019-03-21T18:13:00.710Z,86.00
2019-03-21T18:15:29.874Z,86.90
2019-03-21T18:17:58.691Z,86.20
2019-03-21T18:20:27.662Z,86.10
2019-03-21T18:22:56.275Z,86.50
2019-03-21T18:25:25.000Z,86.80
2019-03-21T18:27:53.915Z,86.70
2019-03-21T18:30:22.578Z,86.80
2019-03-21T18:32:51.384Z,87.20
2019-03-21T18:35:20.408Z,87.10
2019-03-21T18:37:49.055Z,86.90
2019-03-21T18:40:17.799Z,87.50
2019-03-21T18:42:46.791Z,87.50
2019-03-21T18:45:16.351Z,87.80
2019-03-21T18:47:45.175Z,87.80
2019-03-21T18:50:15.618Z,88.00
2019-03-21T18:52:44.366Z,88.20
2019-03-21T18:55:13.365Z,88.50
2019-03-21T18:57:42.082Z,88.50
2019-03-21T19:00:16.245Z,88.50
2019-03-21T19:02:45.305Z,88.70
2019-03-21T19:05:14.121Z,88.70
2019-03-21T19:07:42.758Z,88.90
2019-03-21T19:10:15.853Z,89.00
2019-03-21T19:12:44.626Z,89.10
2019-03-21T19:15:14.719Z,89.20
2019-03-21T19:17:43.394Z,89.20
2019-03-21T19:20:14.428Z,89.40
2019-03-21T19:22:43.093Z,89.50
2019-03-21T19:25:18.369Z,90.10
2019-03-21T19:27:43.046Z,90.40
2019-03-21T19:30:20.453Z,90.60
2019-03-21T19:32:49.166Z,90.80
2019-03-21T19:35:17.996Z,91.00
2019-03-21T19:37:47.100Z,91.20
2019-03-21T19:40:19.600Z,91.30
2019-03-21T19:42:48.448Z,91.70
2019-03-21T19:45:18.611Z,91.40
2019-03-21T19:47:48.012Z,91.60
2019-03-21T19:50:22.956Z,91.80
2019-03-21T19:52:51.549Z,91.90
2019-03-21T19:55:30.360Z,92.10
2019-03-21T19:57:50.853Z,92.20
2019-03-21T20:00:24.067Z,92.40
2019-03-21T20:02:52.979Z,92.50
2019-03-21T20:05:21.721Z,92.50
2019-03-21T20:07:50.699Z,92.50
2019-03-21T20:10:23.198Z,92.80
2019-03-21T20:12:54.086Z,92.90
2019-03-21T20:15:22.835Z,93.10
2019-03-21T20:17:51.803Z,93.20
2019-03-21T20:20:23.849Z,93.30
2019-03-21T20:22:57.275Z,93.50
2019-03-21T20:25:25.964Z,93.70
2019-03-21T20:27:54.902Z,93.90
2019-03-21T20:30:23.758Z,94.00
2019-03-21T20:32:55.156Z,94.20
2019-03-21T20:35:24.034Z,94.30
2019-03-21T20:37:52.779Z,94.10
2019-03-21T20:40:21.550Z,94.10
2019-03-21T20:42:51.508Z,94.20
2019-03-21T20:45:20.771Z,94.20
2019-03-21T20:47:49.814Z,94.10
2019-03-21T20:50:19.265Z,94.20
2019-03-21T20:52:48.708Z,94.20
2019-03-21T20:55:19.280Z,94.10
2019-03-21T20:57:48.012Z,94.00
2019-03-21T21:00:19.557Z,94.00
2019-03-21T21:02:48.414Z,94.20
2019-03-21T21:05:17.261Z,93.80
2019-03-21T21:07:47.943Z,93.80
2019-03-21T21:10:18.086Z,94.20
2019-03-21T21:12:47.057Z,93.70
2019-03-21T21:15:18.574Z,93.70
2019-03-21T21:17:47.265Z,93.70
2019-03-21T21:20:19.301Z,93.60
2019-03-21T21:22:48.114Z,93.80
2019-03-21T21:25:16.913Z,93.70
2019-03-21T21:27:49.716Z,93.70
2019-03-21T21:30:20.669Z,93.90
2019-03-21T21:32:54.433Z,93.80
2019-03-21T21:35:23.136Z,93.90
2019-03-21T21:37:59.836Z,94.20
2019-03-21T21:40:41.355Z,94.10
2019-03-21T21:43:05.380Z,94.10
2019-03-21T21:45:34.018Z,94.10
2019-03-21T21:48:02.826Z,94.20
2019-03-21T21:50:31.485Z,94.30
2019-03-21T21:53:00.203Z,94.40
2019-03-21T21:55:28.841Z,94.40
2019-03-21T21:57:57.494Z,94.60
2019-03-21T22:00:26.510Z,94.70
2019-03-21T22:02:55.099Z,94.70
2019-03-21T22:05:23.803Z,94.60
2019-03-21T22:07:52.535Z,94.80
2019-03-21T22:10:21.372Z,95.00
2019-03-21T22:12:50.334Z,95.00
2019-03-21T22:15:19.000Z,95.10
2019-03-21T22:17:47.664Z,95.20
2019-03-21T22:20:16.935Z,95.30
2019-03-21T22:22:45.800Z,95.30
2019-03-21T22:25:15.288Z,95.40
2019-03-21T22:27:46.943Z,95.50
2019-03-21T22:30:19.612Z,95.60
2019-03-21T22:32:54.203Z,95.70
2019-03-21T22:35:22.891Z,95.70
2019-03-21T22:37:57.526Z,95.60
2019-03-21T22:40:33.304Z,95.70
2019-03-21T22:43:11.570Z,95.80
2019-03-21T22:45:43.392Z,95.90
2019-03-21T22:48:15.603Z,95.90
2019-03-21T22:50:44.485Z,96.00
2019-03-21T22:53:13.126Z,96.10
2019-03-21T22:55:43.688Z,96.10
2019-03-21T22:58:14.802Z,96.20
2019-03-21T23:00:45.070Z,96.20
2019-03-21T23:03:14.032Z,96.40
2019-03-21T23:05:42.700Z,96.40
2019-03-21T23:08:11.385Z,96.40
2019-03-21T23:10:40.205Z,96.40
2019-03-21T23:13:10.461Z,96.30
2019-03-21T23:15:40.691Z,96.30
2019-03-21T23:18:09.397Z,96.40
2019-03-21T23:20:37.980Z,96.40
2019-03-21T23:23:06.603Z,96.40
2019-03-21T23:25:41.413Z,96.80
2019-03-21T23:28:10.263Z,96.50
2019-03-21T23:30:38.993Z,96.60
2019-03-21T23:33:07.688Z,96.60
2019-03-21T23:35:36.374Z,96.60
2019-03-21T23:38:05.071Z,96.80
2019-03-21T23:40:33.917Z,96.70
2019-03-21T23:43:02.587Z,96.70
2019-03-21T23:45:31.307Z,96.80
2019-03-21T23:47:59.959Z,96.70
2019-03-21T23:50:28.667Z,96.80
2019-03-21T23:52:57.376Z,96.80
2019-03-21T23:55:26.087Z,96.90
2019-03-21T23:57:57.666Z,96.90
